createdAt,value
2018-09-30T00:01:45.092Z,95389.47
2018-09-30T00:04:49.418Z,95390.85
2018-09-30T00:07:53.727Z,95396.16
2018-09-30T00:10:58.057Z,95396.73
2018-09-30T00:14:02.368Z,95398.78
2018-09-30T00:17:06.654Z,95398.09
2018-09-30T00:20:10.971Z,95397.23
2018-09-30T00:23:15.301Z,95389.23
2018-09-30T00:26:24.841Z,95384.04
2018-09-30T00:29:30.178Z,95383.57
2018-09-30T00:32:34.502Z,95378.41
2018-09-30T00:35:38.921Z,95376.88
2018-09-30T00:38:43.253Z,95382.67
2018-09-30T00:41:47.532Z,95381.39
2018-09-30T00:44:51.841Z,95382.37
2018-09-30T00:47:56.141Z,95373.68
2018-09-30T00:51:00.441Z,95372.41
2018-09-30T00:54:04.924Z,95369.64
2018-09-30T00:57:09.218Z,95365.86
2018-09-30T01:00:13.517Z,95359.00
2018-09-30T01:03:17.821Z,95359.84
2018-09-30T01:06:22.518Z,95365.91
2018-09-30T01:09:26.958Z,95355.38
2018-09-30T01:12:31.252Z,95353.85
2018-09-30T01:15:35.536Z,95354.98
2018-09-30T01:18:39.833Z,95355.69
2018-09-30T01:21:44.119Z,95353.66
2018-09-30T01:24:48.412Z,95347.88
2018-09-30T01:27:52.723Z,95341.77
2018-09-30T01:30:57.025Z,95347.36
2018-09-30T01:34:01.320Z,95340.86
2018-09-30T01:37:05.603Z,95343.55
2018-09-30T01:40:09.883Z,95342.75
2018-09-30T01:43:14.189Z,95344.00
2018-09-30T01:46:18.480Z,95343.69
2018-09-30T01:49:23.365Z,95341.36
2018-09-30T01:52:47.052Z,95335.77
2018-09-30T01:55:51.393Z,95338.27
2018-09-30T01:58:55.797Z,95335.03
2018-09-30T02:02:00.155Z,95330.52
2018-09-30T02:05:04.482Z,95326.31
2018-09-30T02:08:08.795Z,95333.62
2018-09-30T02:11:13.114Z,95328.41
2018-09-30T02:14:17.434Z,95318.95
2018-09-30T02:17:21.820Z,95324.52
2018-09-30T02:20:26.132Z,95322.20
2018-09-30T02:23:30.459Z,95327.09
2018-09-30T02:26:34.764Z,95321.86
2018-09-30T02:29:39.116Z,95317.69
2018-09-30T02:32:43.453Z,95324.42
2018-09-30T02:35:47.779Z,95328.67
2018-09-30T02:38:52.091Z,95326.92
2018-09-30T02:41:56.425Z,95317.74
2018-09-30T02:45:00.744Z,95322.17
2018-09-30T02:48:05.088Z,95317.48
2018-09-30T02:51:09.390Z,95313.55
2018-09-30T02:54:13.700Z,95323.00
2018-09-30T02:57:18.076Z,95320.58
2018-09-30T03:00:22.396Z,95315.91
2018-09-30T03:03:26.707Z,95313.24
2018-09-30T03:06:36.244Z,95313.03
2018-09-30T03:09:42.785Z,95309.00
2018-09-30T03:12:47.111Z,95306.81
2018-09-30T03:15:51.427Z,95306.87
2018-09-30T03:18:55.745Z,95300.27
2018-09-30T03:22:00.082Z,95300.96
2018-09-30T03:25:04.393Z,95298.69
2018-09-30T03:28:08.717Z,95293.83
2018-09-30T03:31:13.055Z,95295.48
2018-09-30T03:34:17.410Z,95290.47
2018-09-30T03:37:21.792Z,95292.13
2018-09-30T03:40:27.764Z,95288.09
2018-09-30T03:43:32.098Z,95289.11
2018-09-30T03:46:36.396Z,95283.86
2018-09-30T03:49:40.727Z,95284.94
2018-09-30T03:52:45.052Z,95280.53
2018-09-30T03:55:49.357Z,95286.36
2018-09-30T03:58:53.692Z,95278.75
2018-09-30T04:01:58.028Z,95286.37
2018-09-30T04:05:03.411Z,95281.95
2018-09-30T04:08:07.802Z,95279.59
2018-09-30T04:11:12.138Z,95273.67
2018-09-30T04:14:16.485Z,95268.37
2018-09-30T04:17:20.872Z,95260.08
2018-09-30T04:20:25.192Z,95253.78
2018-09-30T04:23:29.511Z,95252.79
2018-09-30T04:26:33.796Z,95252.98
2018-09-30T04:29:38.085Z,95247.50
2018-09-30T04:32:42.376Z,95250.58
2018-09-30T04:35:46.740Z,95252.16
2018-09-30T04:38:51.028Z,95251.58
2018-09-30T04:41:55.329Z,95250.05
2018-09-30T04:44:59.616Z,95251.48
2018-09-30T04:48:03.910Z,95246.48
2018-09-30T04:51:08.201Z,95248.86
2018-09-30T04:54:12.527Z,95251.16
2018-09-30T04:57:16.878Z,95251.41
2018-09-30T05:00:21.125Z,95246.45
2018-09-30T05:03:25.450Z,95248.99
2018-09-30T05:06:29.727Z,95251.58
2018-09-30T05:09:34.106Z,95252.63
2018-09-30T05:12:38.397Z,95250.83
2018-09-30T05:15:42.721Z,95254.45
2018-09-30T05:18:47.009Z,95243.95
2018-09-30T05:21:51.484Z,95242.33
2018-09-30T05:24:55.785Z,95241.16
2018-09-30T05:28:00.114Z,95245.93
2018-09-30T05:31:04.452Z,95244.25
2018-09-30T05:34:08.807Z,95246.79
2018-09-30T05:37:13.221Z,95251.77
2018-09-30T05:40:17.470Z,95245.59
2018-09-30T05:43:21.800Z,95243.87
2018-09-30T05:46:26.116Z,95245.37
2018-09-30T05:49:30.537Z,95244.59
2018-09-30T05:52:34.848Z,95243.17
2018-09-30T05:55:39.164Z,95241.01
2018-09-30T05:58:43.501Z,95234.80
2018-09-30T06:01:47.813Z,95241.59
2018-09-30T06:04:52.407Z,95238.78
2018-09-30T06:07:56.760Z,95239.20
2018-09-30T06:11:01.065Z,95239.02
2018-09-30T06:14:05.643Z,95240.05
2018-09-30T06:17:09.897Z,95242.29
2018-09-30T06:20:14.213Z,95235.04
2018-09-30T06:23:18.647Z,95237.75
2018-09-30T06:26:22.960Z,95243.37
2018-09-30T06:29:27.298Z,95231.63
2018-09-30T06:32:31.665Z,95232.03
2018-09-30T06:35:36.028Z,95235.08
2018-09-30T06:38:40.498Z,95236.03
2018-09-30T06:41:45.130Z,95233.95
2018-09-30T06:44:49.679Z,95228.06
2018-09-30T06:47:54.111Z,95229.85
2018-09-30T06:50:58.507Z,95231.49
2018-09-30T06:54:02.739Z,95224.92
2018-09-30T06:57:07.164Z,95232.37
2018-09-30T07:00:11.503Z,95221.50
2018-09-30T07:03:15.836Z,95220.77
2018-09-30T07:06:20.160Z,95212.66
2018-09-30T07:09:24.495Z,95209.91
2018-09-30T07:12:28.873Z,95209.97
2018-09-30T07:15:33.293Z,95212.48
2018-09-30T07:18:37.791Z,95211.23
2018-09-30T07:21:42.247Z,95210.31
2018-09-30T07:24:46.685Z,95217.38
2018-09-30T07:27:51.114Z,95211.09
2018-09-30T07:30:55.522Z,95207.08
2018-09-30T07:34:00.192Z,95199.71
2018-09-30T07:37:04.692Z,95205.02
2018-09-30T07:40:09.064Z,95206.22
2018-09-30T07:43:13.377Z,95207.52
2018-09-30T07:46:17.703Z,95202.89
2018-09-30T07:49:22.052Z,95205.91
2018-09-30T07:52:26.407Z,95209.61
2018-09-30T07:55:30.672Z,95211.59
2018-09-30T07:58:34.985Z,95205.45
2018-09-30T08:01:39.311Z,95201.69
2018-09-30T08:04:43.681Z,95199.50
2018-09-30T08:07:48.073Z,95200.17
2018-09-30T08:10:52.377Z,95202.23
2018-09-30T08:13:56.685Z,95197.66
2018-09-30T08:17:01.024Z,95196.83
2018-09-30T08:20:05.417Z,95198.99
2018-09-30T08:23:09.732Z,95197.07
2018-09-30T08:26:14.056Z,95192.94
2018-09-30T08:29:18.462Z,95196.21
2018-09-30T08:32:22.768Z,95197.89
2018-09-30T08:35:27.060Z,95192.22
2018-09-30T08:38:33.577Z,95194.66
2018-09-30T08:41:39.180Z,95190.88
2018-09-30T08:44:43.518Z,95192.16
2018-09-30T08:47:47.947Z,95195.20
2018-09-30T08:50:52.290Z,95191.81
2018-09-30T08:53:56.699Z,95189.23
2018-09-30T08:57:00.992Z,95196.52
2018-09-30T09:00:05.685Z,95203.22
2018-09-30T09:03:10.081Z,95195.03
2018-09-30T09:06:14.335Z,95197.53
2018-09-30T09:09:18.668Z,95190.73
2018-09-30T09:12:23.051Z,95188.48
2018-09-30T09:15:27.697Z,95188.48
2018-09-30T09:18:32.017Z,95178.34
2018-09-30T09:21:36.444Z,95181.93
2018-09-30T09:24:40.853Z,95176.02
2018-09-30T09:27:45.288Z,95171.55
2018-09-30T09:30:49.717Z,95169.54
2018-09-30T09:33:54.134Z,95161.22
2018-09-30T09:36:58.553Z,95164.98
2018-09-30T09:40:03.079Z,95165.76
2018-09-30T09:43:07.716Z,95159.28
2018-09-30T09:46:12.135Z,95157.80
2018-09-30T09:49:16.557Z,95156.30
2018-09-30T09:52:21.022Z,95157.34
2018-09-30T09:55:25.418Z,95151.56
2018-09-30T09:58:29.845Z,95146.63
2018-09-30T10:01:34.157Z,95147.27
2018-09-30T10:04:38.560Z,95144.61
2018-09-30T10:07:42.870Z,95140.17
2018-09-30T10:10:47.279Z,95135.72
2018-09-30T10:13:52.017Z,95127.06
2018-09-30T10:16:56.354Z,95122.10
2018-09-30T10:20:00.900Z,95125.88
2018-09-30T10:23:05.272Z,95124.84
2018-09-30T10:26:09.609Z,95112.33
2018-09-30T10:29:13.969Z,95121.02
2018-09-30T10:32:18.293Z,95115.01
2018-09-30T10:35:22.663Z,95107.34
2018-09-30T10:38:27.057Z,95097.45
2018-09-30T10:41:31.351Z,95095.92
2018-09-30T10:44:35.784Z,95097.86
2018-09-30T10:47:40.176Z,95089.64
2018-09-30T10:50:44.729Z,95083.66
2018-09-30T10:53:49.125Z,95082.99
2018-09-30T10:56:53.656Z,95076.27
2018-09-30T10:59:58.044Z,95073.12
2018-09-30T11:03:02.453Z,95057.68
2018-09-30T11:09:44.873Z,95051.41
2018-09-30T11:12:49.442Z,95045.03
2018-09-30T11:15:53.926Z,95039.06
2018-09-30T11:18:58.434Z,95033.02
2018-09-30T11:22:02.821Z,95036.77
2018-09-30T11:25:07.243Z,95028.44
2018-09-30T11:28:11.624Z,95024.42
2018-09-30T11:31:15.948Z,95021.05
2018-09-30T11:34:20.319Z,95021.78
2018-09-30T11:37:25.057Z,95020.42
2018-09-30T11:40:29.465Z,95015.64
2018-09-30T11:43:33.838Z,95013.23
2018-09-30T11:46:39.880Z,95008.11
2018-09-30T11:49:44.230Z,95004.12
2018-09-30T11:52:48.743Z,95004.53
2018-09-30T11:55:53.113Z,94994.31
2018-09-30T11:58:57.565Z,94986.09
2018-09-30T12:02:01.888Z,94981.15
2018-09-30T12:05:06.304Z,94976.61
2018-09-30T12:08:10.923Z,94963.65
2018-09-30T12:11:15.276Z,94960.88
2018-09-30T12:14:19.597Z,94951.84
2018-09-30T12:17:24.003Z,94954.95
2018-09-30T12:20:28.401Z,94948.08
2018-09-30T12:23:33.020Z,94946.39
2018-09-30T12:26:37.497Z,94944.11
2018-09-30T12:29:41.925Z,94937.78
2018-09-30T12:32:46.393Z,94938.50
2018-09-30T12:35:50.729Z,94934.86
2018-09-30T12:38:55.198Z,94932.19
2018-09-30T12:41:59.609Z,94932.61
2018-09-30T12:45:04.014Z,94926.28
2018-09-30T12:48:08.421Z,94919.16
2018-09-30T12:51:12.756Z,94917.25
2018-09-30T12:54:17.331Z,94912.42
2018-09-30T12:57:21.722Z,94904.95
2018-09-30T13:00:26.073Z,94910.53
2018-09-30T13:03:30.436Z,94904.58
2018-09-30T13:06:34.902Z,94901.30
2018-09-30T13:09:39.268Z,94902.86
2018-09-30T13:12:44.244Z,94898.05
2018-09-30T13:15:48.715Z,94898.23
2018-09-30T13:18:53.337Z,94892.66
2018-09-30T13:21:57.774Z,94895.14
2018-09-30T13:25:02.120Z,94888.05
2018-09-30T13:28:06.903Z,94885.53
2018-09-30T13:31:11.304Z,94874.39
2018-09-30T13:34:15.756Z,94878.44
2018-09-30T13:37:20.352Z,94877.66
2018-09-30T13:40:25.439Z,94879.02
2018-09-30T13:43:29.698Z,94874.78
2018-09-30T13:46:34.051Z,94868.05
2018-09-30T13:49:38.389Z,94864.77
2018-09-30T13:52:42.704Z,94865.36
2018-09-30T13:55:47.062Z,94861.11
2018-09-30T13:58:51.492Z,94852.86
2018-09-30T14:01:55.932Z,94843.76
2018-09-30T14:05:00.233Z,94843.80
2018-09-30T14:08:04.695Z,94839.93
2018-09-30T14:11:09.032Z,94836.08
2018-09-30T14:14:13.437Z,94828.97
2018-09-30T14:17:17.862Z,94823.77
2018-09-30T14:20:22.170Z,94822.42
2018-09-30T14:23:26.509Z,94822.40
2018-09-30T14:26:30.955Z,94817.95
2018-09-30T14:29:35.452Z,94813.33
2018-09-30T14:32:39.852Z,94808.88
2018-09-30T14:35:44.230Z,94809.65
2018-09-30T14:38:48.595Z,94805.44
2018-09-30T14:41:53.579Z,94805.61
2018-09-30T14:44:58.076Z,94804.50
2018-09-30T14:48:02.500Z,94803.34
2018-09-30T14:51:06.932Z,94800.49
2018-09-30T14:54:11.385Z,94796.64
2018-09-30T14:57:15.757Z,94803.33
2018-09-30T15:00:20.094Z,94795.08
2018-09-30T15:03:24.507Z,94790.23
2018-09-30T15:06:28.827Z,94788.51
2018-09-30T15:09:33.149Z,94791.42
2018-09-30T15:12:38.002Z,94787.77
2018-09-30T15:15:42.437Z,94787.77
2018-09-30T15:18:46.841Z,94790.31
2018-09-30T15:21:51.282Z,94782.42
2018-09-30T15:24:55.692Z,94785.86
2018-09-30T15:28:00.109Z,94785.48
2018-09-30T15:31:04.553Z,94789.56
2018-09-30T15:34:09.211Z,94783.22
2018-09-30T15:37:13.609Z,94781.88
2018-09-30T15:40:17.996Z,94784.80
2018-09-30T15:43:22.510Z,94781.73
2018-09-30T15:46:26.949Z,94777.09
2018-09-30T15:49:31.481Z,94779.81
2018-09-30T15:52:35.938Z,94768.86
2018-09-30T15:55:40.332Z,94776.17
2018-09-30T15:58:44.759Z,94771.75
2018-09-30T16:01:49.196Z,94769.77
2018-09-30T16:04:53.666Z,94768.80
2018-09-30T16:07:58.069Z,94767.07
2018-09-30T16:11:02.481Z,94771.45
2018-09-30T16:14:07.061Z,94772.37
2018-09-30T16:17:11.557Z,94771.91
2018-09-30T16:20:15.942Z,94772.39
2018-09-30T16:23:20.325Z,94761.93
2018-09-30T16:26:24.757Z,94758.97
2018-09-30T16:29:29.140Z,94764.63
2018-09-30T16:32:33.555Z,94774.02
2018-09-30T16:35:37.936Z,94772.47
2018-09-30T16:38:42.303Z,94767.48
2018-09-30T16:41:46.929Z,94774.59
2018-09-30T16:44:51.537Z,94779.89
2018-09-30T16:47:55.861Z,94779.25
2018-09-30T16:51:00.180Z,94782.76
2018-09-30T16:54:04.526Z,94775.58
2018-09-30T16:57:08.923Z,94778.09
2018-09-30T17:00:13.391Z,94780.77
2018-09-30T17:03:17.770Z,94787.54
2018-09-30T17:06:22.107Z,94787.44
2018-09-30T17:09:26.468Z,94784.25
2018-09-30T17:12:30.877Z,94786.56
2018-09-30T17:15:35.554Z,94791.72
2018-09-30T17:18:39.949Z,94797.18
2018-09-30T17:21:44.341Z,94795.49
2018-09-30T17:24:48.641Z,94788.91
2018-09-30T17:27:53.095Z,94795.54
2018-09-30T17:30:57.467Z,94794.55
2018-09-30T17:34:01.821Z,94792.65
2018-09-30T17:37:06.269Z,94801.06
2018-09-30T17:40:10.655Z,94800.19
2018-09-30T17:43:15.137Z,94795.59
2018-09-30T17:46:19.562Z,94792.48
2018-09-30T17:49:24.015Z,94798.55
2018-09-30T17:52:28.647Z,94793.34
2018-09-30T17:55:32.999Z,94797.45
2018-09-30T17:58:37.423Z,94797.63
2018-09-30T18:01:41.919Z,94805.11
2018-09-30T18:04:46.881Z,94803.17
2018-09-30T18:07:52.976Z,94798.77
2018-09-30T18:10:57.377Z,94798.05
2018-09-30T18:14:02.391Z,94793.95
2018-09-30T18:17:07.034Z,94792.66
2018-09-30T18:20:11.424Z,94796.17
2018-09-30T18:23:15.880Z,94791.95
2018-09-30T18:26:20.224Z,94792.67
2018-09-30T18:29:24.600Z,94789.83
2018-09-30T18:32:28.979Z,94790.16
2018-09-30T18:35:33.335Z,94791.07
2018-09-30T18:38:37.792Z,94789.84
2018-09-30T18:41:42.660Z,94787.55
2018-09-30T18:44:47.037Z,94786.78
2018-09-30T18:47:51.420Z,94784.04
2018-09-30T18:50:55.769Z,94780.16
2018-09-30T18:54:00.370Z,94778.28
2018-09-30T18:57:04.739Z,94772.10
2018-09-30T19:00:09.056Z,94768.89
2018-09-30T19:03:13.519Z,94764.90
2018-09-30T19:06:17.994Z,94765.34
2018-09-30T19:09:22.330Z,94770.11
2018-09-30T19:12:26.745Z,94764.56
2018-09-30T19:15:31.155Z,94768.66
2018-09-30T19:18:35.502Z,94767.47
2018-09-30T19:21:39.820Z,94757.39
2018-09-30T19:24:44.273Z,94761.41
2018-09-30T19:27:48.776Z,94762.18
2018-09-30T19:30:53.222Z,94761.20
2018-09-30T19:33:57.607Z,94753.80
2018-09-30T19:37:02.219Z,94754.50
2018-09-30T19:40:06.737Z,94746.19
2018-09-30T19:43:11.296Z,94740.11
2018-09-30T19:46:15.681Z,94738.25
2018-09-30T19:49:20.066Z,94736.72
2018-09-30T19:52:24.467Z,94731.42
2018-09-30T19:55:28.917Z,94727.77
2018-09-30T19:58:33.306Z,94727.32
2018-09-30T20:01:37.660Z,94722.47
2018-09-30T20:04:41.988Z,94728.22
2018-09-30T20:07:46.449Z,94717.06
2018-09-30T20:10:50.880Z,94717.38
2018-09-30T20:13:55.199Z,94719.73
2018-09-30T20:16:59.516Z,94714.84
2018-09-30T20:20:04.251Z,94711.33
2018-09-30T20:23:08.732Z,94710.87
2018-09-30T20:26:13.041Z,94712.88
2018-09-30T20:29:17.644Z,94708.12
2018-09-30T20:32:21.992Z,94708.68
2018-09-30T20:35:26.431Z,94710.98
2018-09-30T20:38:30.775Z,94704.25
2018-09-30T20:41:35.122Z,94705.89
2018-09-30T20:44:39.596Z,94702.81
2018-09-30T20:47:43.917Z,94699.05
2018-09-30T20:50:48.241Z,94702.14
2018-09-30T20:53:52.625Z,94694.51
2018-09-30T20:56:57.147Z,94685.30
2018-09-30T21:00:01.840Z,94681.39
2018-09-30T21:03:06.181Z,94680.21
2018-09-30T21:06:30.044Z,94680.78
2018-09-30T21:09:34.566Z,94675.90
2018-09-30T21:12:38.894Z,94672.10
2018-09-30T21:15:43.225Z,94668.95
2018-09-30T21:18:47.698Z,94671.81
2018-09-30T21:21:52.069Z,94662.59
2018-09-30T21:24:56.402Z,94657.55
2018-09-30T21:28:00.747Z,94654.41
2018-09-30T21:31:05.321Z,94648.05
2018-09-30T21:34:09.705Z,94644.33
2018-09-30T21:37:14.167Z,94641.98
2018-09-30T21:40:18.487Z,94639.16
2018-09-30T21:43:22.840Z,94638.78
2018-09-30T21:46:27.261Z,94632.67
2018-09-30T21:49:31.681Z,94630.08
2018-09-30T21:52:36.208Z,94621.49
2018-09-30T21:55:40.800Z,94615.77
2018-09-30T21:58:45.147Z,94612.28
2018-09-30T22:01:49.547Z,94610.90
2018-09-30T22:04:53.820Z,94607.83
2018-09-30T22:07:58.131Z,94602.59
2018-09-30T22:11:02.442Z,94598.98
2018-09-30T22:14:06.857Z,94593.47
2018-09-30T22:17:11.203Z,94595.08
2018-09-30T22:20:15.528Z,94594.12
2018-09-30T22:23:19.885Z,94588.34
2018-09-30T22:26:24.264Z,94582.13
2018-09-30T22:29:28.640Z,94583.90
2018-09-30T22:32:33.056Z,94579.55
2018-09-30T22:35:37.380Z,94574.32
2018-09-30T22:38:41.713Z,94571.32
2018-09-30T22:41:46.034Z,94562.78
2018-09-30T22:44:50.373Z,94564.40
2018-09-30T22:47:54.693Z,94562.34
2018-09-30T22:50:59.034Z,94558.69
2018-09-30T22:54:03.334Z,94561.22
2018-09-30T22:57:07.948Z,94559.34
2018-09-30T23:00:12.278Z,94557.08
2018-09-30T23:03:16.623Z,94549.13
2018-09-30T23:06:20.937Z,94559.62
2018-09-30T23:09:25.261Z,94551.63
2018-09-30T23:12:29.596Z,94557.52
2018-09-30T23:15:33.967Z,94555.19
2018-09-30T23:18:38.313Z,94545.54
2018-09-30T23:21:42.770Z,94547.86
2018-09-30T23:24:47.141Z,94551.02
2018-09-30T23:27:51.486Z,94548.58
2018-09-30T23:30:55.808Z,94543.47
2018-09-30T23:34:00.166Z,94545.30
2018-09-30T23:37:04.527Z,94543.34
2018-09-30T23:40:08.865Z,94542.94
2018-09-30T23:43:13.204Z,94533.47
2018-09-30T23:46:17.520Z,94535.52
2018-09-30T23:49:21.839Z,94542.44
2018-09-30T23:52:26.168Z,94544.45
2018-09-30T23:55:30.550Z,94542.67
2018-09-30T23:58:34.896Z,94545.26
